createdAt,value
2023-05-12T00:01:11.633Z,13.10
2023-05-12T00:03:39.156Z,13.00
2023-05-12T00:06:06.782Z,13.10
2023-05-12T00:08:34.140Z,13.00
2023-05-12T00:11:01.899Z,13.00
2023-05-12T00:13:29.719Z,12.90
2023-05-12T00:15:59.165Z,12.90
2023-05-12T00:18:28.747Z,12.90
2023-05-12T00:20:56.868Z,12.80
2023-05-12T00:23:24.254Z,12.80
2023-05-12T00:25:51.720Z,12.80
2023-05-12T00:28:19.588Z,12.70
2023-05-12T00:30:46.893Z,12.60
2023-05-12T00:33:14.444Z,12.60
2023-05-12T00:35:41.821Z,12.60
2023-05-12T00:38:09.243Z,12.60
2023-05-12T00:40:36.659Z,12.60
2023-05-12T00:43:04.296Z,12.60
2023-05-12T00:45:33.361Z,12.40
2023-05-12T00:48:01.392Z,12.50
2023-05-12T00:50:28.976Z,12.50
2023-05-12T00:52:57.052Z,12.40
2023-05-12T00:55:25.811Z,12.40
2023-05-12T00:57:53.521Z,12.40
2023-05-12T01:00:21.878Z,12.30
2023-05-12T01:02:49.699Z,12.30
2023-05-12T01:05:17.192Z,12.60
2023-05-12T01:07:46.891Z,12.30
2023-05-12T01:10:21.898Z,12.30
2023-05-12T01:12:49.716Z,12.20
2023-05-12T01:15:18.395Z,12.20
2023-05-12T01:17:52.762Z,12.20
2023-05-12T01:20:24.241Z,12.20
2023-05-12T01:22:52.662Z,12.20
2023-05-12T01:25:23.636Z,12.20
2023-05-12T01:27:52.911Z,12.10
2023-05-12T01:30:22.035Z,12.10
2023-05-12T01:32:51.305Z,12.10
2023-05-12T01:35:19.924Z,12.10
2023-05-12T01:37:47.623Z,12.10
2023-05-12T01:40:15.509Z,12.10
2023-05-12T01:42:43.145Z,12.10
2023-05-12T01:45:10.807Z,12.10
2023-05-12T01:47:38.271Z,12.00
2023-05-12T01:50:05.931Z,12.10
2023-05-12T01:52:33.329Z,12.10
2023-05-12T01:55:00.633Z,12.30
2023-05-12T01:57:28.100Z,12.30
2023-05-12T01:59:55.592Z,12.30
2023-05-12T02:02:22.891Z,12.40
2023-05-12T02:04:50.262Z,12.50
2023-05-12T02:07:17.655Z,12.50
2023-05-12T02:09:44.966Z,12.50
2023-05-12T02:12:12.298Z,12.50
2023-05-12T02:14:41.383Z,12.50
2023-05-12T02:17:08.976Z,12.40
2023-05-12T02:19:36.427Z,12.50
2023-05-12T02:22:03.951Z,12.50
2023-05-12T02:24:31.267Z,12.40
2023-05-12T02:26:58.545Z,12.80
2023-05-12T02:29:26.554Z,13.00
2023-05-12T02:31:53.894Z,12.50
2023-05-12T02:34:21.263Z,12.50
2023-05-12T02:36:48.581Z,12.50
2023-05-12T02:39:16.098Z,12.50
2023-05-12T02:41:43.465Z,12.50
2023-05-12T02:44:13.232Z,12.50
2023-05-12T02:46:40.458Z,12.50
2023-05-12T02:49:07.821Z,12.50
2023-05-12T02:51:35.257Z,12.50
2023-05-12T02:54:02.587Z,12.50
2023-05-12T02:56:31.318Z,12.50
2023-05-12T02:58:59.950Z,12.50
2023-05-12T03:01:27.338Z,12.50
2023-05-12T03:03:54.748Z,12.30
2023-05-12T03:06:22.151Z,12.40
2023-05-12T03:08:49.578Z,12.40
2023-05-12T03:11:16.911Z,12.40
2023-05-12T03:13:44.278Z,12.40
2023-05-12T03:16:11.566Z,12.40
2023-05-12T03:18:38.892Z,12.30
2023-05-12T03:21:06.537Z,12.50
2023-05-12T03:23:35.526Z,12.20
2023-05-12T03:26:02.888Z,12.20
2023-05-12T03:28:30.260Z,12.20
2023-05-12T03:30:58.623Z,12.20
2023-05-12T03:33:27.463Z,12.20
2023-05-12T03:35:54.862Z,12.30
2023-05-12T03:38:23.739Z,12.20
2023-05-12T03:40:53.728Z,12.20
2023-05-12T03:43:22.795Z,12.20
2023-05-12T03:45:52.543Z,12.20
2023-05-12T03:48:19.840Z,12.50
2023-05-12T03:50:47.175Z,12.40
2023-05-12T03:53:15.471Z,12.20
2023-05-12T03:55:42.867Z,12.20
2023-05-12T03:58:10.165Z,12.10
2023-05-12T04:00:40.084Z,12.10
2023-05-12T04:03:07.686Z,12.10
2023-05-12T04:05:36.575Z,12.10
2023-05-12T04:08:04.101Z,12.10
2023-05-12T04:10:31.464Z,12.10
2023-05-12T04:12:58.931Z,12.00
2023-05-12T04:15:26.653Z,12.00
2023-05-12T04:17:57.054Z,12.00
2023-05-12T04:20:24.569Z,11.90
2023-05-12T04:22:52.046Z,11.90
2023-05-12T04:25:19.649Z,11.80
2023-05-12T04:27:47.100Z,11.80
2023-05-12T04:30:14.477Z,11.80
2023-05-12T04:32:41.999Z,11.90
2023-05-12T04:35:09.736Z,11.90
2023-05-12T04:37:37.174Z,10.50
2023-05-12T04:40:05.440Z,12.00
2023-05-12T04:42:32.710Z,12.80
2023-05-12T04:45:01.534Z,12.00
2023-05-12T04:47:29.453Z,12.00
2023-05-12T04:49:57.049Z,12.00
2023-05-12T04:52:25.035Z,12.10
2023-05-12T04:54:52.530Z,12.00
2023-05-12T04:57:19.893Z,12.00
2023-05-12T04:59:47.262Z,12.00
2023-05-12T05:02:14.843Z,12.00
2023-05-12T05:04:42.197Z,12.00
2023-05-12T05:07:10.593Z,11.90
2023-05-12T05:09:37.883Z,12.00
2023-05-12T05:12:05.573Z,12.00
2023-05-12T05:14:33.202Z,12.00
2023-05-12T05:17:00.893Z,12.00
2023-05-12T05:19:44.569Z,12.10
2023-05-12T05:22:17.339Z,12.10
2023-05-12T05:24:45.176Z,12.70
2023-05-12T05:27:12.721Z,12.10
2023-05-12T05:29:40.133Z,12.10
2023-05-12T05:32:10.152Z,12.20
2023-05-12T05:34:37.843Z,12.20
2023-05-12T05:37:05.739Z,12.20
2023-05-12T05:39:33.126Z,12.30
2023-05-12T05:42:00.429Z,12.30
2023-05-12T05:44:28.022Z,12.30
2023-05-12T05:46:55.355Z,12.20
2023-05-12T05:49:24.310Z,12.30
2023-05-12T05:51:51.589Z,12.30
2023-05-12T05:54:18.937Z,12.30
2023-05-12T05:56:46.240Z,12.40
2023-05-12T05:59:14.487Z,12.40
2023-05-12T06:01:41.846Z,12.40
2023-05-12T06:04:10.263Z,12.40
2023-05-12T06:06:37.820Z,12.50
2023-05-12T06:09:07.306Z,12.20
2023-05-12T06:11:34.630Z,12.50
2023-05-12T06:14:01.916Z,12.40
2023-05-12T06:16:29.774Z,12.50
2023-05-12T06:18:57.241Z,12.50
2023-05-12T06:21:25.261Z,12.50
2023-05-12T06:23:53.147Z,12.50
2023-05-12T06:26:22.975Z,12.60
2023-05-12T06:28:50.309Z,12.60
2023-05-12T06:31:17.643Z,12.60
2023-05-12T06:33:45.030Z,12.60
2023-05-12T06:36:12.842Z,12.60
2023-05-12T06:38:40.131Z,12.70
2023-05-12T06:41:07.467Z,12.70
2023-05-12T06:43:35.904Z,12.50
2023-05-12T06:46:03.348Z,14.10
2023-05-12T06:48:30.803Z,12.80
2023-05-12T06:50:58.118Z,12.90
2023-05-12T06:53:25.772Z,12.90
2023-05-12T06:55:53.934Z,13.00
2023-05-12T06:58:22.149Z,13.00
2023-05-12T07:00:49.463Z,13.10
2023-05-12T07:03:17.281Z,13.30
2023-05-12T07:05:45.807Z,13.30
2023-05-12T07:08:13.423Z,13.40
2023-05-12T07:10:40.738Z,13.40
2023-05-12T07:13:08.326Z,13.40
2023-05-12T07:15:36.647Z,13.40
2023-05-12T07:18:03.982Z,13.40
2023-05-12T07:20:31.473Z,13.40
2023-05-12T07:22:58.944Z,13.50
2023-05-12T07:25:26.599Z,13.70
2023-05-12T07:27:54.266Z,13.60
2023-05-12T07:30:22.596Z,13.60
2023-05-12T07:32:51.053Z,13.60
2023-05-12T07:35:19.984Z,12.90
2023-05-12T07:37:47.430Z,13.60
2023-05-12T07:40:15.304Z,13.60
2023-05-12T07:42:42.636Z,13.60
2023-05-12T07:45:10.404Z,13.70
2023-05-12T07:47:37.757Z,13.60
2023-05-12T07:50:05.913Z,13.60
2023-05-12T07:52:34.319Z,13.70
2023-05-12T07:55:01.643Z,13.80
2023-05-12T07:57:29.011Z,13.90
2023-05-12T07:59:59.576Z,13.90
2023-05-12T08:02:27.941Z,14.00
2023-05-12T08:04:55.596Z,14.00
2023-05-12T08:07:28.439Z,14.00
2023-05-12T08:10:00.923Z,14.00
2023-05-12T08:12:30.140Z,14.00
2023-05-12T08:14:57.547Z,13.90
2023-05-12T08:17:29.652Z,13.90
2023-05-12T08:20:00.128Z,14.00
2023-05-12T08:22:31.445Z,14.10
2023-05-12T08:25:01.285Z,14.10
2023-05-12T08:27:29.615Z,15.60
2023-05-12T08:29:57.409Z,14.10
2023-05-12T08:32:25.074Z,14.10
2023-05-12T08:34:52.558Z,14.10
2023-05-12T08:37:20.139Z,14.10
2023-05-12T08:39:47.902Z,14.20
2023-05-12T08:42:24.193Z,14.20
2023-05-12T08:44:53.821Z,14.30
2023-05-12T08:47:25.460Z,14.40
2023-05-12T08:50:01.062Z,14.70
2023-05-12T08:52:31.749Z,14.50
2023-05-12T08:55:00.934Z,14.60
2023-05-12T08:57:29.582Z,14.50
2023-05-12T08:59:59.459Z,15.10
2023-05-12T09:02:37.787Z,14.50
2023-05-12T09:05:14.181Z,14.40
2023-05-12T09:07:46.293Z,14.30
2023-05-12T09:10:32.738Z,14.30
2023-05-12T09:13:23.616Z,13.90
2023-05-12T09:15:54.167Z,14.00
2023-05-12T09:18:21.970Z,14.20
2023-05-12T09:20:49.261Z,15.70
2023-05-12T09:23:18.517Z,14.30
2023-05-12T09:25:49.574Z,14.30
2023-05-12T09:28:17.997Z,14.30
2023-05-12T09:30:45.410Z,14.20
2023-05-12T09:33:15.266Z,14.10
2023-05-12T09:35:44.377Z,14.10
2023-05-12T09:38:14.240Z,14.00
2023-05-12T09:40:43.182Z,13.80
2023-05-12T09:43:15.120Z,13.90
2023-05-12T09:45:44.283Z,13.90
2023-05-12T09:48:14.252Z,13.90
2023-05-12T09:50:52.312Z,13.80
2023-05-12T09:53:22.970Z,13.80
2023-05-12T09:55:50.397Z,13.80
2023-05-12T09:58:19.690Z,13.70
2023-05-12T10:03:18.777Z,13.60
2023-05-12T10:05:58.606Z,13.60
2023-05-12T10:08:59.172Z,12.80
2023-05-12T10:11:28.130Z,13.50
2023-05-12T10:13:56.835Z,13.50
2023-05-12T10:16:28.180Z,13.40
2023-05-12T10:18:56.845Z,13.40
2023-05-12T10:21:26.203Z,12.40
2023-05-12T10:23:54.811Z,13.40
2023-05-12T10:26:24.519Z,13.30
2023-05-12T10:28:58.614Z,13.40
2023-05-12T10:31:27.992Z,13.40
2023-05-12T10:33:59.500Z,13.30
2023-05-12T10:36:27.041Z,13.30
2023-05-12T10:38:55.307Z,13.20
2023-05-12T10:41:33.903Z,13.30
2023-05-12T10:44:02.516Z,13.30
2023-05-12T10:46:30.713Z,13.20
2023-05-12T10:49:08.540Z,13.20
2023-05-12T10:51:51.603Z,13.10
2023-05-12T10:54:22.039Z,13.10
2023-05-12T10:56:49.997Z,13.10
2023-05-12T10:59:20.666Z,13.00
2023-05-12T11:02:04.975Z,12.90
2023-05-12T11:04:50.384Z,12.90
2023-05-12T11:07:22.624Z,12.80
2023-05-12T11:09:58.607Z,12.80
2023-05-12T11:12:32.717Z,12.80
2023-05-12T11:15:02.150Z,12.60
2023-05-12T11:17:29.839Z,12.70
2023-05-12T11:19:58.143Z,12.70
2023-05-12T11:22:26.074Z,12.70
2023-05-12T11:24:53.585Z,12.70
2023-05-12T11:27:23.329Z,12.70
2023-05-12T11:30:01.926Z,12.70
2023-05-12T11:32:29.756Z,12.20
2023-05-12T11:35:12.250Z,12.60
2023-05-12T11:37:41.343Z,12.60
2023-05-12T11:40:15.758Z,12.50
2023-05-12T11:42:48.351Z,13.00
2023-05-12T11:45:23.038Z,12.40
2023-05-12T11:47:50.899Z,12.40
2023-05-12T11:50:26.363Z,12.40
2023-05-12T11:52:54.151Z,12.30
2023-05-12T11:55:23.770Z,12.40
2023-05-12T11:58:02.328Z,12.50
2023-05-12T12:00:34.455Z,12.50
2023-05-12T12:03:13.095Z,12.50
2023-05-12T12:05:42.644Z,12.60
2023-05-12T12:08:15.192Z,12.60
2023-05-12T12:10:46.641Z,12.50
2023-05-12T12:13:23.922Z,12.50
2023-05-12T12:15:52.035Z,12.50
2023-05-12T12:18:19.512Z,12.60
2023-05-12T12:20:47.345Z,12.50
2023-05-12T12:23:14.933Z,13.10
2023-05-12T12:25:43.598Z,12.50
2023-05-12T12:28:11.128Z,12.40
2023-05-12T12:30:38.668Z,12.50
2023-05-12T12:33:06.024Z,12.50
2023-05-12T12:35:33.352Z,12.50
2023-05-12T12:38:00.741Z,12.50
2023-05-12T12:40:28.322Z,12.50
2023-05-12T12:42:56.142Z,12.50
2023-05-12T12:45:23.642Z,12.40
2023-05-12T12:47:52.732Z,12.50
2023-05-12T12:50:20.168Z,12.50
2023-05-12T12:52:49.045Z,12.50
2023-05-12T12:55:16.607Z,12.50
2023-05-12T12:57:44.351Z,12.50
2023-05-12T13:00:12.342Z,12.40
2023-05-12T13:02:39.877Z,12.80
2023-05-12T13:05:08.696Z,12.40
2023-05-12T13:07:36.030Z,12.30
2023-05-12T13:10:04.234Z,12.30
2023-05-12T13:12:31.640Z,12.40
2023-05-12T13:15:00.458Z,12.40
2023-05-12T13:17:28.529Z,12.40
2023-05-12T13:19:55.861Z,12.40
2023-05-12T13:22:23.215Z,12.30
2023-05-12T13:24:51.934Z,12.40
2023-05-12T13:27:19.215Z,12.30
2023-05-12T13:29:49.634Z,12.40
2023-05-12T13:32:17.263Z,12.50
2023-05-12T13:34:44.551Z,12.50
2023-05-12T13:37:11.852Z,12.50
2023-05-12T13:39:39.112Z,12.50
2023-05-12T13:42:06.736Z,12.00
2023-05-12T13:44:34.032Z,12.50
2023-05-12T13:47:01.391Z,12.40
2023-05-12T13:49:28.950Z,12.50
2023-05-12T13:51:56.332Z,12.50
2023-05-12T13:54:24.981Z,12.40
2023-05-12T13:56:52.333Z,12.40
2023-05-12T13:59:22.140Z,12.40
2023-05-12T14:01:49.600Z,12.30
2023-05-12T14:04:17.244Z,12.30
2023-05-12T14:06:44.597Z,12.40
2023-05-12T14:09:11.982Z,12.30
2023-05-12T14:11:39.336Z,12.30
2023-05-12T14:14:07.028Z,12.30
2023-05-12T14:16:34.853Z,12.30
2023-05-12T14:19:02.431Z,12.30
2023-05-12T14:21:29.797Z,12.40
2023-05-12T14:23:57.335Z,12.40
2023-05-12T14:26:26.513Z,12.40
2023-05-12T14:28:53.938Z,12.40
2023-05-12T14:31:22.587Z,12.10
2023-05-12T14:33:50.040Z,12.50
2023-05-12T14:36:17.358Z,12.50
2023-05-12T14:38:44.867Z,12.50
2023-05-12T14:41:12.174Z,12.40
2023-05-12T14:43:39.501Z,12.50
2023-05-12T14:46:08.974Z,12.50
2023-05-12T14:48:36.346Z,12.50
2023-05-12T14:51:03.926Z,12.50
2023-05-12T14:53:31.488Z,12.50
2023-05-12T14:55:59.090Z,12.50
2023-05-12T14:58:29.880Z,12.60
2023-05-12T15:01:09.471Z,12.60
2023-05-12T15:03:37.388Z,12.60
2023-05-12T15:06:07.929Z,12.60
2023-05-12T15:08:36.241Z,12.60
2023-05-12T15:11:04.561Z,12.60
2023-05-12T15:13:32.941Z,12.60
2023-05-12T15:16:00.494Z,12.70
2023-05-12T15:18:27.936Z,12.60
2023-05-12T15:20:55.484Z,12.70
2023-05-12T15:23:22.817Z,12.70
2023-05-12T15:25:50.344Z,12.70
2023-05-12T15:28:17.722Z,12.70
2023-05-12T15:30:45.626Z,12.70
2023-05-12T15:33:13.267Z,12.70
2023-05-12T15:35:41.604Z,12.60
2023-05-12T15:38:08.909Z,12.60
2023-05-12T15:40:37.842Z,12.60
2023-05-12T15:43:05.471Z,12.70
2023-05-12T15:45:32.781Z,12.60
2023-05-12T15:48:00.322Z,12.60
2023-05-12T15:50:27.793Z,12.60
2023-05-12T15:52:55.066Z,12.60
2023-05-12T15:55:23.034Z,12.50
2023-05-12T15:57:51.021Z,12.50
2023-05-12T16:00:19.630Z,12.50
2023-05-12T16:02:47.101Z,12.60
2023-05-12T16:05:14.822Z,12.60
2023-05-12T16:07:42.571Z,12.60
2023-05-12T16:10:10.309Z,12.60
2023-05-12T16:12:37.769Z,12.60
2023-05-12T16:15:05.607Z,12.60
2023-05-12T16:17:33.601Z,12.60
2023-05-12T16:20:02.059Z,12.70
2023-05-12T16:22:29.476Z,12.70
2023-05-12T16:25:00.757Z,12.70
2023-05-12T16:27:33.647Z,12.70
2023-05-12T16:30:06.000Z,12.70
2023-05-12T16:32:33.591Z,12.70
2023-05-12T16:35:01.414Z,12.60
2023-05-12T16:37:31.704Z,12.70
2023-05-12T16:40:00.668Z,12.60
2023-05-12T16:42:27.968Z,12.60
2023-05-12T16:44:56.448Z,12.60
2023-05-12T16:47:23.845Z,12.60
2023-05-12T16:49:56.437Z,12.60
2023-05-12T16:52:23.966Z,12.60
2023-05-12T16:54:57.075Z,12.80
2023-05-12T16:57:24.818Z,12.60
2023-05-12T16:59:52.259Z,12.80
2023-05-12T17:02:19.700Z,12.60
2023-05-12T17:04:47.185Z,12.60
2023-05-12T17:07:14.609Z,12.50
2023-05-12T17:09:41.959Z,12.50
2023-05-12T17:12:09.675Z,12.70
2023-05-12T17:14:37.656Z,12.40
2023-05-12T17:17:05.189Z,12.40
2023-05-12T17:19:33.700Z,12.40
2023-05-12T17:22:01.375Z,12.50
2023-05-12T17:24:28.798Z,12.40
2023-05-12T17:26:56.082Z,12.50
2023-05-12T17:29:23.402Z,12.40
2023-05-12T17:31:50.858Z,12.50
2023-05-12T17:34:18.505Z,12.50
2023-05-12T17:36:45.934Z,12.50
2023-05-12T17:39:15.893Z,12.40
2023-05-12T17:41:46.413Z,12.40
2023-05-12T17:44:14.432Z,12.30
2023-05-12T17:46:42.498Z,12.30
2023-05-12T17:49:09.879Z,12.30
2023-05-12T17:51:37.311Z,12.30
2023-05-12T17:54:04.689Z,12.30
2023-05-12T17:56:32.066Z,12.40
2023-05-12T17:59:04.353Z,12.30
2023-05-12T18:01:31.774Z,12.20
2023-05-12T18:03:59.225Z,12.20
2023-05-12T18:06:26.917Z,12.10
2023-05-12T18:08:54.263Z,12.10
2023-05-12T18:11:21.659Z,12.10
2023-05-12T18:13:51.173Z,12.10
2023-05-12T18:16:27.908Z,12.20
2023-05-12T18:18:56.278Z,12.20
2023-05-12T18:21:24.115Z,12.20
2023-05-12T18:23:51.658Z,12.40
2023-05-12T18:26:22.858Z,12.10
2023-05-12T18:28:50.276Z,12.20
2023-05-12T18:31:20.019Z,12.20
2023-05-12T18:33:48.988Z,12.10
2023-05-12T18:36:18.374Z,12.10
2023-05-12T18:38:46.346Z,12.10
2023-05-12T18:41:16.990Z,12.00
2023-05-12T18:43:44.853Z,12.10
2023-05-12T18:46:12.602Z,12.20
2023-05-12T18:48:40.001Z,12.20
2023-05-12T18:51:08.056Z,12.10
2023-05-12T18:53:35.517Z,12.10
2023-05-12T18:56:02.868Z,12.10
2023-05-12T18:58:30.302Z,12.10
2023-05-12T19:00:57.780Z,12.00
2023-05-12T19:03:25.174Z,11.90
2023-05-12T19:05:52.543Z,11.90
2023-05-12T19:08:20.137Z,11.90
2023-05-12T19:10:48.485Z,12.20
2023-05-12T19:13:15.924Z,11.90
2023-05-12T19:15:43.265Z,11.90
2023-05-12T19:18:10.802Z,12.00
2023-05-12T19:20:38.328Z,11.90
2023-05-12T19:23:05.789Z,11.90
2023-05-12T19:25:33.124Z,12.00
2023-05-12T19:28:00.940Z,11.90
2023-05-12T19:30:29.345Z,11.90
2023-05-12T19:32:57.060Z,12.00
2023-05-12T19:35:24.990Z,11.90
2023-05-12T19:37:52.633Z,11.90
2023-05-12T19:40:21.170Z,12.00
2023-05-12T19:42:48.463Z,11.90
2023-05-12T19:45:15.915Z,12.00
2023-05-12T19:47:43.842Z,12.00
2023-05-12T19:50:11.718Z,12.00
2023-05-12T19:52:39.751Z,11.80
2023-05-12T19:55:08.991Z,12.00
2023-05-12T19:57:50.251Z,11.90
2023-05-12T20:00:22.382Z,11.80
2023-05-12T20:02:49.857Z,11.80
2023-05-12T20:05:17.815Z,11.70
2023-05-12T20:07:46.210Z,11.80
2023-05-12T20:10:14.525Z,11.80
2023-05-12T20:12:41.933Z,11.80
2023-05-12T20:15:10.208Z,11.90
2023-05-12T20:17:37.613Z,11.80
2023-05-12T20:20:05.713Z,11.80
2023-05-12T20:22:34.306Z,11.80
2023-05-12T20:25:04.854Z,11.80
2023-05-12T20:27:33.358Z,11.90
2023-05-12T20:30:00.797Z,11.90
2023-05-12T20:32:28.316Z,12.00
2023-05-12T20:34:55.908Z,12.00
2023-05-12T20:37:23.263Z,12.00
2023-05-12T20:39:52.781Z,12.00
2023-05-12T20:42:20.833Z,12.10
2023-05-12T20:44:52.594Z,12.00
2023-05-12T20:47:20.405Z,11.90
2023-05-12T20:49:50.955Z,11.80
2023-05-12T20:52:18.493Z,11.80
2023-05-12T20:54:47.440Z,11.70
2023-05-12T20:57:14.722Z,11.70
2023-05-12T20:59:42.204Z,12.00
2023-05-12T21:02:10.834Z,11.70
2023-05-12T21:04:42.959Z,11.70
2023-05-12T21:07:11.350Z,11.70
2023-05-12T21:09:39.100Z,11.80
2023-05-12T21:12:06.834Z,11.80
2023-05-12T21:14:39.823Z,11.80
2023-05-12T21:17:08.343Z,11.80
2023-05-12T21:19:36.618Z,11.90
2023-05-12T21:22:05.301Z,11.80
2023-05-12T21:24:33.199Z,11.80
2023-05-12T21:27:04.110Z,11.70
2023-05-12T21:29:33.415Z,11.80
2023-05-12T21:32:01.460Z,11.80
2023-05-12T21:34:31.318Z,11.70
2023-05-12T21:37:00.547Z,12.70
2023-05-12T21:39:33.685Z,11.60
2023-05-12T21:42:04.034Z,11.70
2023-05-12T21:44:31.889Z,11.60
2023-05-12T21:46:59.426Z,11.60
2023-05-12T21:49:26.918Z,11.60
2023-05-12T21:51:59.865Z,11.60
2023-05-12T21:54:27.342Z,11.60
2023-05-12T21:56:54.629Z,11.80
2023-05-12T21:59:22.338Z,11.60
2023-05-12T22:01:50.083Z,11.60
2023-05-12T22:04:17.643Z,12.40
2023-05-12T22:06:44.999Z,11.60
2023-05-12T22:09:12.409Z,11.60
2023-05-12T22:11:39.893Z,11.50
2023-05-12T22:14:07.334Z,11.40
2023-05-12T22:16:41.968Z,11.40
2023-05-12T22:19:10.324Z,12.50
2023-05-12T22:21:37.959Z,11.40
2023-05-12T22:24:05.723Z,11.50
2023-05-12T22:26:36.127Z,11.30
2023-05-12T22:29:03.506Z,11.40
2023-05-12T22:31:30.848Z,11.30
2023-05-12T22:33:58.204Z,10.10
2023-05-12T22:36:25.763Z,11.70
2023-05-12T22:38:53.072Z,11.30
2023-05-12T22:41:20.513Z,11.40
2023-05-12T22:43:47.907Z,11.30
2023-05-12T22:46:15.179Z,11.40
2023-05-12T22:48:43.568Z,11.70
2023-05-12T22:51:11.101Z,11.40
2023-05-12T22:53:41.952Z,11.40
2023-05-12T22:56:09.340Z,11.40
2023-05-12T22:58:36.666Z,11.40
2023-05-12T23:01:04.226Z,11.40
2023-05-12T23:03:33.037Z,11.30
2023-05-12T23:06:00.399Z,11.30
2023-05-12T23:08:27.773Z,11.30
2023-05-12T23:10:55.111Z,10.70
2023-05-12T23:13:22.540Z,11.30
2023-05-12T23:15:49.979Z,11.40
2023-05-12T23:18:17.416Z,11.40
2023-05-12T23:20:44.887Z,11.50
2023-05-12T23:23:12.351Z,11.50
2023-05-12T23:25:39.803Z,11.50
2023-05-12T23:28:07.275Z,11.50
2023-05-12T23:30:34.639Z,11.50
2023-05-12T23:33:01.987Z,11.50
2023-05-12T23:35:29.425Z,11.50
2023-05-12T23:37:56.786Z,11.60
2023-05-12T23:40:24.274Z,11.50
2023-05-12T23:42:51.768Z,11.50
2023-05-12T23:45:19.103Z,11.50
2023-05-12T23:47:46.560Z,11.50
2023-05-12T23:50:13.943Z,10.50
2023-05-12T23:52:41.325Z,11.50
2023-05-12T23:55:08.927Z,11.30
2023-05-12T23:57:36.309Z,11.50
